createdAt,value
2018-11-22T00:00:41.199Z,101377.02
2018-11-22T00:03:11.171Z,101372.24
2018-11-22T00:08:55.696Z,101367.06
2018-11-22T00:11:25.556Z,101368.83
2018-11-22T00:13:55.485Z,101371.40
2018-11-22T00:16:25.457Z,101365.70
2018-11-22T00:18:55.312Z,101367.02
2018-11-22T00:21:25.228Z,101366.55
2018-11-22T00:23:55.628Z,101366.53
2018-11-22T00:26:25.760Z,101368.30
2018-11-22T00:29:14.649Z,101364.37
2018-11-22T00:31:44.591Z,101363.50
2018-11-22T00:34:14.458Z,101363.53
2018-11-22T00:36:44.467Z,101364.42
2018-11-22T00:39:33.316Z,101367.42
2018-11-22T00:42:05.630Z,101365.70
2018-11-22T00:44:36.642Z,101364.83
2018-11-22T00:47:06.611Z,101369.22
2018-11-22T00:49:36.471Z,101372.19
2018-11-22T00:52:25.350Z,101370.48
2018-11-22T00:54:55.272Z,101375.30
2018-11-22T00:57:25.201Z,101373.99
2018-11-22T00:59:55.210Z,101377.97
2018-11-22T01:02:25.262Z,101386.98
2018-11-22T01:04:55.324Z,101386.16
2018-11-22T01:07:25.440Z,101380.89
2018-11-22T01:09:57.711Z,101381.34
2018-11-22T01:12:27.855Z,101382.66
2018-11-22T01:14:57.868Z,101380.02
2018-11-22T01:17:27.959Z,101383.52
2018-11-22T01:19:58.281Z,101383.94
2018-11-22T01:22:28.558Z,101376.97
2018-11-22T01:25:11.182Z,101371.30
2018-11-22T01:27:41.527Z,101372.17
2018-11-22T01:30:30.432Z,101372.19
2018-11-22T01:33:00.503Z,101375.23
2018-11-22T01:35:32.805Z,101359.95
2018-11-22T01:38:05.047Z,101373.02
2018-11-22T01:40:37.788Z,101362.55
2018-11-22T01:43:07.747Z,101362.94
2018-11-22T01:45:56.602Z,101362.94
2018-11-22T01:48:26.655Z,101362.45
2018-11-22T01:50:56.672Z,101355.93
2018-11-22T01:53:27.778Z,101352.03
2018-11-22T01:55:58.132Z,101357.24
2018-11-22T01:58:46.928Z,101361.61
2018-11-22T02:01:16.843Z,101351.11
2018-11-22T02:03:46.837Z,101357.98
2018-11-22T02:06:16.905Z,101354.16
2018-11-22T02:08:47.145Z,101352.42
2018-11-22T02:11:16.997Z,101348.47
2018-11-22T02:13:46.834Z,101354.19
2018-11-22T02:16:17.027Z,101354.65
2018-11-22T02:18:48.715Z,101349.42
2018-11-22T02:21:18.755Z,101352.00
2018-11-22T02:23:48.626Z,101351.16
2018-11-22T02:26:18.730Z,101353.37
2018-11-22T02:29:07.668Z,101355.98
2018-11-22T02:31:39.806Z,101357.29
2018-11-22T02:34:09.839Z,101352.42
2018-11-22T02:36:39.708Z,101354.16
2018-11-22T02:39:11.426Z,101355.11
2018-11-22T02:41:59.909Z,101355.50
2018-11-22T02:44:29.929Z,101353.37
2018-11-22T02:47:00.559Z,101349.86
2018-11-22T02:49:30.602Z,101350.70
2018-11-22T02:52:00.578Z,101352.00
2018-11-22T02:54:30.363Z,101349.34
2018-11-22T02:57:00.529Z,101347.65
2018-11-22T02:59:30.502Z,101351.17
2018-11-22T03:02:00.430Z,101356.70
2018-11-22T03:04:30.449Z,101351.55
2018-11-22T03:07:00.560Z,101347.22
2018-11-22T03:13:00.240Z,101348.56
2018-11-22T03:15:30.335Z,101358.60
2018-11-22T03:18:00.453Z,101355.95
2018-11-22T03:20:49.739Z,101355.08
2018-11-22T03:23:19.621Z,101356.40
2018-11-22T03:26:09.745Z,101356.39
2018-11-22T03:28:58.297Z,101357.24
2018-11-22T03:31:28.731Z,101354.19
2018-11-22T03:34:09.652Z,101354.59
2018-11-22T03:36:39.605Z,101355.08
2018-11-22T03:39:10.593Z,101354.58
2018-11-22T03:44:29.875Z,101350.70
2018-11-22T03:46:59.663Z,101346.77
2018-11-22T03:49:30.070Z,101347.62
2018-11-22T03:51:59.840Z,101351.55
2018-11-22T03:54:51.153Z,101350.64
2018-11-22T03:57:21.313Z,101348.08
2018-11-22T03:59:51.757Z,101347.47
2018-11-22T04:02:24.112Z,101347.47
2018-11-22T04:11:16.387Z,101350.22
2018-11-22T04:13:46.626Z,101342.80
2018-11-22T04:16:35.468Z,101341.11
2018-11-22T04:19:05.468Z,101344.59
2018-11-22T04:21:54.827Z,101343.72
2018-11-22T04:24:25.126Z,101341.54
2018-11-22T04:26:55.035Z,101337.61
2018-11-22T04:29:48.232Z,101335.41
2018-11-22T04:32:18.578Z,101344.63
2018-11-22T04:35:11.418Z,101341.13
2018-11-22T04:37:41.787Z,101342.90
2018-11-22T04:40:31.272Z,101343.75
2018-11-22T04:43:02.005Z,101339.38
2018-11-22T04:48:21.142Z,101343.77
2018-11-22T04:53:51.351Z,101345.41
2018-11-22T04:56:23.528Z,101340.12
2018-11-22T04:58:53.612Z,101337.88
2018-11-22T05:01:24.182Z,101341.77
2018-11-22T05:03:54.236Z,101337.38
2018-11-22T05:06:24.290Z,101336.10
2018-11-22T05:08:56.038Z,101333.45
2018-11-22T05:11:26.349Z,101339.56
2018-11-22T05:13:56.248Z,101333.48
2018-11-22T05:16:26.121Z,101336.13
2018-11-22T05:18:56.218Z,101333.56
2018-11-22T05:21:26.772Z,101328.81
2018-11-22T05:23:57.609Z,101337.48
2018-11-22T05:26:28.042Z,101329.71
2018-11-22T05:29:36.845Z,101326.15
2018-11-22T05:32:09.788Z,101329.30
2018-11-22T05:37:41.803Z,101326.84
2018-11-22T05:40:14.789Z,101322.48
2018-11-22T05:42:45.214Z,101322.92
2018-11-22T05:45:17.221Z,101325.48
2018-11-22T05:47:47.483Z,101326.34
2018-11-22T05:50:19.400Z,101326.38
2018-11-22T05:52:49.998Z,101329.48
2018-11-22T05:55:19.939Z,101332.10
2018-11-22T05:57:50.058Z,101326.84
2018-11-22T06:00:30.935Z,101327.66
2018-11-22T06:03:02.113Z,101329.46
2018-11-22T06:05:51.225Z,101322.06
2018-11-22T06:08:24.753Z,101327.71
2018-11-22T06:10:54.661Z,101323.78
2018-11-22T06:13:24.637Z,101326.41
2018-11-22T06:15:54.837Z,101325.53
2018-11-22T06:18:27.373Z,101330.38
2018-11-22T06:20:57.427Z,101329.89
2018-11-22T06:23:27.610Z,101331.58
2018-11-22T06:25:58.216Z,101331.13
2018-11-22T06:31:17.453Z,101328.48
2018-11-22T06:33:47.679Z,101331.63
2018-11-22T06:36:18.477Z,101338.64
2018-11-22T06:38:48.470Z,101336.52
2018-11-22T06:41:18.547Z,101340.41
2018-11-22T06:43:48.421Z,101339.98
2018-11-22T06:46:38.678Z,101341.28
2018-11-22T06:49:08.688Z,101343.03
2018-11-22T06:51:38.578Z,101345.63
2018-11-22T06:54:10.999Z,101337.34
2018-11-22T06:56:41.317Z,101343.84
2018-11-22T06:59:11.827Z,101343.44
2018-11-22T07:01:41.942Z,101339.53
2018-11-22T07:04:12.206Z,101344.33
2018-11-22T07:07:19.615Z,101350.49
2018-11-22T07:09:54.177Z,101350.10
2018-11-22T07:12:25.388Z,101348.69
2018-11-22T07:14:55.682Z,101347.00
2018-11-22T07:17:44.413Z,101345.23
2018-11-22T07:20:24.489Z,101353.11
2018-11-22T07:22:56.226Z,101350.47
2018-11-22T07:25:45.299Z,101353.49
2018-11-22T07:28:15.174Z,101356.09
2018-11-22T07:30:46.369Z,101353.03
2018-11-22T07:33:16.332Z,101360.01
2018-11-22T07:35:46.324Z,101353.80
2018-11-22T07:38:18.531Z,101358.50
2018-11-22T07:40:51.247Z,101353.76
2018-11-22T07:43:24.318Z,101350.77
2018-11-22T07:45:54.259Z,101356.91
2018-11-22T07:48:25.801Z,101351.59
2018-11-22T07:50:55.715Z,101345.94
2018-11-22T07:53:44.650Z,101353.31
2018-11-22T07:56:16.132Z,101344.98
2018-11-22T07:58:46.279Z,101356.30
2018-11-22T08:01:16.120Z,101357.53
2018-11-22T08:03:46.297Z,101354.41
2018-11-22T08:06:21.139Z,101357.88
2018-11-22T08:08:51.364Z,101357.77
2018-11-22T08:11:21.512Z,101362.17
2018-11-22T08:13:55.748Z,101368.20
2018-11-22T08:16:25.764Z,101362.52
2018-11-22T08:18:56.194Z,101355.00
2018-11-22T08:21:26.517Z,101365.01
2018-11-22T08:23:57.864Z,101366.83
2018-11-22T08:26:27.857Z,101365.11
2018-11-22T08:28:58.125Z,101362.06
2018-11-22T08:31:28.298Z,101356.36
2018-11-22T08:33:58.261Z,101354.02
2018-11-22T08:36:28.578Z,101364.90
2018-11-22T08:39:17.324Z,101365.31
2018-11-22T08:44:35.604Z,101359.14
2018-11-22T08:47:06.315Z,101354.23
2018-11-22T08:49:35.599Z,101357.00
2018-11-22T08:52:24.284Z,101359.06
2018-11-22T08:54:54.340Z,101367.70
2018-11-22T08:57:25.153Z,101365.48
2018-11-22T08:59:55.385Z,101374.25
2018-11-22T09:02:25.312Z,101362.34
2018-11-22T09:04:55.327Z,101369.77
2018-11-22T09:10:29.793Z,101367.64
2018-11-22T09:13:00.565Z,101371.05
2018-11-22T09:15:49.387Z,101368.43
2018-11-22T09:18:19.237Z,101367.90
2018-11-22T09:20:49.254Z,101368.31
2018-11-22T09:23:19.305Z,101372.91
2018-11-22T09:25:49.487Z,101368.48
2018-11-22T09:28:19.650Z,101371.80
2018-11-22T09:30:49.808Z,101377.82
2018-11-22T09:33:19.754Z,101371.27
2018-11-22T09:35:49.812Z,101381.84
2018-11-22T09:38:19.662Z,101379.28
2018-11-22T09:40:49.769Z,101384.53
2018-11-22T09:43:19.852Z,101385.22
2018-11-22T09:45:49.905Z,101390.52
2018-11-22T09:48:22.339Z,101389.30
2018-11-22T09:50:59.354Z,101390.33
2018-11-22T09:53:29.398Z,101386.95
2018-11-22T09:55:59.762Z,101389.56
2018-11-22T09:58:49.795Z,101386.11
2018-11-22T10:01:39.173Z,101382.52
2018-11-22T10:04:09.139Z,101378.59
2018-11-22T10:06:40.205Z,101376.73
2018-11-22T10:09:31.037Z,101385.38
2018-11-22T10:12:19.762Z,101385.87
2018-11-22T10:14:50.301Z,101390.61
2018-11-22T10:17:20.318Z,101384.56
2018-11-22T10:19:50.528Z,101385.20
2018-11-22T10:22:20.465Z,101386.11
2018-11-22T10:24:50.442Z,101393.32
2018-11-22T10:27:39.742Z,101401.61
2018-11-22T10:30:12.223Z,101402.10
2018-11-22T10:32:45.593Z,101396.81
2018-11-22T10:35:17.116Z,101393.87
2018-11-22T10:37:49.359Z,101393.32
2018-11-22T10:40:20.770Z,101392.77
2018-11-22T10:42:52.246Z,101390.13
2018-11-22T10:45:26.638Z,101395.83
2018-11-22T10:47:57.853Z,101388.41
2018-11-22T10:50:38.988Z,101396.64
2018-11-22T10:53:09.152Z,101398.63
2018-11-22T10:55:41.739Z,101401.84
2018-11-22T10:58:30.479Z,101389.55
2018-11-22T11:01:19.304Z,101393.05
2018-11-22T11:04:07.805Z,101393.84
2018-11-22T11:06:56.309Z,101392.55
2018-11-22T11:09:26.530Z,101388.37
2018-11-22T11:11:56.939Z,101389.68
2018-11-22T11:14:26.969Z,101390.93
2018-11-22T11:16:58.380Z,101393.02
2018-11-22T11:19:28.581Z,101388.16
2018-11-22T11:21:58.680Z,101383.28
2018-11-22T11:24:28.916Z,101383.69
2018-11-22T11:26:58.790Z,101383.34
2018-11-22T11:29:28.713Z,101382.87
2018-11-22T11:31:58.935Z,101377.85
2018-11-22T11:34:29.198Z,101371.23
2018-11-22T11:36:59.365Z,101369.42
2018-11-22T11:39:29.602Z,101367.20
2018-11-22T11:44:48.742Z,101367.91
2018-11-22T11:50:22.566Z,101368.11
2018-11-22T11:52:52.915Z,101379.78
2018-11-22T11:55:23.338Z,101368.28
2018-11-22T11:57:53.452Z,101370.73
2018-11-22T12:00:46.196Z,101368.94
2018-11-22T12:03:16.338Z,101368.98
2018-11-22T12:05:46.542Z,101372.19
2018-11-22T12:08:16.535Z,101361.44
2018-11-22T12:10:46.482Z,101354.45
2018-11-22T12:13:16.441Z,101361.27
2018-11-22T12:18:16.027Z,101353.20
2018-11-22T12:20:46.022Z,101350.69
2018-11-22T12:23:16.130Z,101349.38
2018-11-22T12:31:16.112Z,101337.28
2018-11-22T12:34:04.736Z,101337.88
2018-11-22T12:37:14.662Z,101340.11
2018-11-22T12:39:44.642Z,101337.16
2018-11-22T12:42:14.719Z,101335.20
2018-11-22T12:44:44.724Z,101341.16
2018-11-22T12:47:38.165Z,101335.11
2018-11-22T12:50:09.935Z,101332.20
2018-11-22T12:52:39.920Z,101335.81
2018-11-22T12:55:11.358Z,101333.73
2018-11-22T12:57:41.564Z,101334.61
2018-11-22T13:00:16.606Z,101334.32
2018-11-22T13:02:46.808Z,101325.69
2018-11-22T13:05:17.978Z,101331.70
2018-11-22T13:07:47.882Z,101329.91
2018-11-22T13:10:18.883Z,101326.52
2018-11-22T13:12:49.601Z,101328.81
2018-11-22T13:15:20.754Z,101327.06
2018-11-22T13:17:50.665Z,101321.81
2018-11-22T13:20:21.857Z,101329.54
2018-11-22T13:23:03.189Z,101322.58
2018-11-22T13:25:33.625Z,101317.33
2018-11-22T13:28:03.788Z,101317.36
2018-11-22T13:30:38.448Z,101317.77
2018-11-22T13:33:08.441Z,101315.94
2018-11-22T13:35:57.217Z,101317.86
2018-11-22T13:38:27.335Z,101318.73
2018-11-22T13:40:57.311Z,101315.78
2018-11-22T13:43:46.425Z,101314.76
2018-11-22T13:46:17.324Z,101313.96
2018-11-22T13:48:47.758Z,101311.34
2018-11-22T13:54:25.768Z,101312.00
2018-11-22T13:56:56.280Z,101315.98
2018-11-22T13:59:44.738Z,101322.14
2018-11-22T14:02:14.667Z,101321.34
2018-11-22T14:04:44.689Z,101318.72
2018-11-22T14:07:14.680Z,101324.12
2018-11-22T14:09:44.521Z,101320.29
2018-11-22T14:12:14.488Z,101314.97
2018-11-22T14:14:44.439Z,101316.13
2018-11-22T14:19:55.875Z,101310.41
2018-11-22T14:22:25.858Z,101309.49
2018-11-22T14:24:56.293Z,101306.75
2018-11-22T14:27:26.289Z,101300.55
2018-11-22T14:29:56.651Z,101298.25
2018-11-22T14:32:26.729Z,101297.48
2018-11-22T14:35:00.574Z,101296.90
2018-11-22T14:37:27.523Z,101293.52
2018-11-22T14:39:57.806Z,101297.02
2018-11-22T14:42:27.769Z,101301.23
2018-11-22T14:44:58.094Z,101304.61
2018-11-22T14:47:28.153Z,101306.09
2018-11-22T14:49:58.282Z,101305.61
2018-11-22T14:52:28.251Z,101303.89
2018-11-22T14:57:48.494Z,101300.84
2018-11-22T15:00:18.572Z,101303.14
2018-11-22T15:02:48.901Z,101301.50
2018-11-22T15:05:18.774Z,101295.42
2018-11-22T15:07:48.613Z,101294.55
2018-11-22T15:10:18.839Z,101290.57
2018-11-22T15:12:51.206Z,101288.38
2018-11-22T15:15:24.811Z,101292.64
2018-11-22T15:18:13.536Z,101287.47
2018-11-22T15:20:43.560Z,101285.91
2018-11-22T15:23:13.859Z,101282.02
2018-11-22T15:25:44.099Z,101280.66
2018-11-22T15:28:14.184Z,101277.56
2018-11-22T15:30:44.201Z,101274.98
2018-11-22T15:33:14.131Z,101284.64
2018-11-22T15:38:50.532Z,101284.36
2018-11-22T15:41:20.577Z,101285.38
2018-11-22T15:43:50.938Z,101288.00
2018-11-22T15:46:20.906Z,101290.59
2018-11-22T15:48:51.554Z,101292.56
2018-11-22T15:51:21.506Z,101297.95
2018-11-22T15:53:51.730Z,101303.67
2018-11-22T15:56:22.210Z,101298.10
2018-11-22T15:58:52.331Z,101305.13
2018-11-22T16:01:22.444Z,101303.81
2018-11-22T16:03:52.902Z,101312.27
2018-11-22T16:06:41.496Z,101317.17
2018-11-22T16:09:12.291Z,101321.69
2018-11-22T16:11:42.338Z,101316.58
2018-11-22T16:14:12.417Z,101325.02
2018-11-22T16:16:42.899Z,101322.49
2018-11-22T16:19:13.866Z,101323.91
2018-11-22T16:21:43.939Z,101327.93
2018-11-22T16:24:13.995Z,101328.94
2018-11-22T16:27:03.161Z,101328.59
2018-11-22T16:29:33.671Z,101329.16
2018-11-22T16:32:03.819Z,101329.66
2018-11-22T16:34:34.124Z,101328.87
2018-11-22T16:37:04.476Z,101325.50
2018-11-22T16:39:34.346Z,101321.63
2018-11-22T16:42:23.380Z,101320.23
2018-11-22T16:44:53.520Z,101322.50
2018-11-22T16:47:42.979Z,101329.11
2018-11-22T16:50:14.554Z,101328.68
2018-11-22T16:52:44.583Z,101331.33
2018-11-22T16:55:23.158Z,101330.02
2018-11-22T16:57:54.322Z,101333.45
2018-11-22T17:00:26.361Z,101327.80
2018-11-22T17:02:57.726Z,101330.48
2018-11-22T17:05:28.271Z,101339.63
2018-11-22T17:07:58.284Z,101338.80
2018-11-22T17:10:29.330Z,101335.75
2018-11-22T17:13:00.484Z,101336.59
2018-11-22T17:15:49.464Z,101339.30
2018-11-22T17:18:19.360Z,101345.41
2018-11-22T17:20:49.608Z,101345.84
2018-11-22T17:23:19.915Z,101352.86
2018-11-22T17:25:50.232Z,101349.52
2018-11-22T17:28:20.852Z,101353.98
2018-11-22T17:30:50.790Z,101352.80
2018-11-22T17:33:20.934Z,101354.19
2018-11-22T17:35:50.971Z,101352.88
2018-11-22T17:38:21.040Z,101344.12
2018-11-22T17:40:51.803Z,101346.41
2018-11-22T17:43:21.647Z,101347.22
2018-11-22T17:45:52.837Z,101353.77
2018-11-22T17:48:22.826Z,101357.83
2018-11-22T17:51:11.642Z,101353.98
2018-11-22T17:53:43.734Z,101355.37
2018-11-22T17:56:13.773Z,101358.91
2018-11-22T17:58:43.900Z,101357.98
2018-11-22T18:01:14.643Z,101360.25
2018-11-22T18:03:43.894Z,101356.84
2018-11-22T18:06:14.054Z,101358.63
2018-11-22T18:08:44.304Z,101362.19
2018-11-22T18:11:32.910Z,101362.63
2018-11-22T18:16:52.174Z,101361.00
2018-11-22T18:19:34.229Z,101358.85
2018-11-22T18:22:05.563Z,101360.23
2018-11-22T18:24:36.020Z,101360.27
2018-11-22T18:27:06.711Z,101362.37
2018-11-22T18:29:36.814Z,101364.59
2018-11-22T18:32:07.118Z,101370.78
2018-11-22T18:34:37.421Z,101369.97
2018-11-22T18:37:07.728Z,101370.38
2018-11-22T18:39:37.860Z,101372.19
2018-11-22T18:42:07.902Z,101374.05
2018-11-22T18:44:38.100Z,101367.12
2018-11-22T18:47:08.218Z,101368.45
2018-11-22T18:49:38.158Z,101373.22
2018-11-22T18:52:08.335Z,101370.62
2018-11-22T18:54:38.511Z,101374.06
2018-11-22T18:57:08.644Z,101377.62
2018-11-22T18:59:39.080Z,101373.78
2018-11-22T19:02:09.465Z,101376.88
2018-11-22T19:04:39.549Z,101373.38
2018-11-22T19:07:09.695Z,101372.50
2018-11-22T19:09:39.739Z,101378.18
2018-11-22T19:12:23.968Z,101379.59
2018-11-22T19:14:54.929Z,101375.75
2018-11-22T19:17:24.893Z,101384.47
2018-11-22T19:20:13.356Z,101385.80
2018-11-22T19:23:03.267Z,101379.29
2018-11-22T19:25:33.219Z,101383.21
2018-11-22T19:33:40.877Z,101395.09
2018-11-22T19:36:10.837Z,101389.04
2018-11-22T19:38:40.863Z,101389.48
2018-11-22T19:41:10.871Z,101392.47
2018-11-22T19:43:40.872Z,101392.16
2018-11-22T19:46:10.800Z,101387.86
2018-11-22T19:48:40.852Z,101389.64
2018-11-22T19:51:10.701Z,101388.81
2018-11-22T19:53:40.693Z,101393.19
2018-11-22T19:56:10.637Z,101389.28
2018-11-22T19:58:41.162Z,101394.05
2018-11-22T20:01:11.174Z,101396.69
2018-11-22T20:03:43.662Z,101390.60
2018-11-22T20:06:13.605Z,101390.66
2018-11-22T20:08:43.797Z,101386.79
2018-11-22T20:11:14.001Z,101398.12
2018-11-22T20:14:03.370Z,101386.41
2018-11-22T20:16:33.461Z,101394.25
2018-11-22T20:19:03.611Z,101402.08
2018-11-22T20:21:33.479Z,101396.42
2018-11-22T20:24:03.478Z,101397.77
2018-11-22T20:26:33.414Z,101390.77
2018-11-22T20:29:03.770Z,101401.23
2018-11-22T20:31:34.151Z,101397.35
2018-11-22T20:34:23.121Z,101393.89
2018-11-22T20:36:53.449Z,101400.01
2018-11-22T20:39:23.523Z,101403.09
2018-11-22T20:41:54.305Z,101394.45
2018-11-22T20:44:24.198Z,101397.06
2018-11-22T20:46:54.246Z,101394.94
2018-11-22T20:49:24.561Z,101402.73
2018-11-22T20:52:06.717Z,101396.63
2018-11-22T20:54:36.761Z,101396.70
2018-11-22T20:57:06.834Z,101398.44
2018-11-22T20:59:39.687Z,101401.48
2018-11-22T21:02:09.926Z,101391.52
2018-11-22T21:04:40.684Z,101400.27
2018-11-22T21:07:10.799Z,101395.91
2018-11-22T21:10:00.187Z,101399.39
2018-11-22T21:12:30.452Z,101396.39
2018-11-22T21:15:00.657Z,101391.23
2018-11-22T21:17:50.603Z,101397.77
2018-11-22T21:20:22.640Z,101398.16
2018-11-22T21:22:53.279Z,101395.16
2018-11-22T21:25:25.663Z,101393.44
2018-11-22T21:27:58.762Z,101390.83
2018-11-22T21:30:47.626Z,101393.03
2018-11-22T21:33:18.484Z,101389.55
2018-11-22T21:35:48.526Z,101389.11
2018-11-22T21:38:45.470Z,101396.92
2018-11-22T21:43:56.477Z,101396.43
2018-11-22T21:46:45.036Z,101396.47
2018-11-22T21:49:15.511Z,101391.75
2018-11-22T21:51:46.836Z,101397.81
2018-11-22T21:54:16.792Z,101392.21
2018-11-22T21:56:46.857Z,101391.78
2018-11-22T21:59:17.080Z,101394.39
2018-11-22T22:01:59.114Z,101392.27
2018-11-22T22:04:40.161Z,101392.70
2018-11-22T22:07:10.245Z,101392.28
2018-11-22T22:09:40.080Z,101397.05
2018-11-22T22:12:10.132Z,101384.03
2018-11-22T22:14:39.947Z,101395.77
2018-11-22T22:17:09.941Z,101391.44
2018-11-22T22:19:39.926Z,101389.23
2018-11-22T22:25:31.241Z,101393.20
2018-11-22T22:28:03.072Z,101393.20
2018-11-22T22:30:34.445Z,101394.95
2018-11-22T22:33:06.241Z,101394.05
2018-11-22T22:35:36.139Z,101396.66
2018-11-22T22:38:06.376Z,101391.86
2018-11-22T22:40:36.493Z,101395.38
2018-11-22T22:43:06.654Z,101392.33
2018-11-22T22:45:37.171Z,101393.21
2018-11-22T22:48:47.481Z,101393.65
2018-11-22T22:51:37.199Z,101393.25
2018-11-22T22:54:07.938Z,101395.45
2018-11-22T22:56:38.069Z,101397.61
2018-11-22T22:59:08.464Z,101400.23
2018-11-22T23:01:38.442Z,101396.34
2018-11-22T23:04:08.683Z,101396.36
2018-11-22T23:06:39.115Z,101407.22
2018-11-22T23:09:12.787Z,101405.51
2018-11-22T23:11:42.967Z,101406.40
2018-11-22T23:14:13.203Z,101398.58
2018-11-22T23:16:43.172Z,101398.14
2018-11-22T23:19:13.204Z,101396.01
2018-11-22T23:22:02.147Z,101393.41
2018-11-22T23:24:32.457Z,101392.53
2018-11-22T23:27:02.503Z,101392.55
2018-11-22T23:29:32.411Z,101392.98
2018-11-22T23:32:20.999Z,101392.56
2018-11-22T23:35:09.822Z,101394.33
2018-11-22T23:37:40.055Z,101393.92
2018-11-22T23:40:17.028Z,101382.18
2018-11-22T23:42:47.183Z,101390.45
2018-11-22T23:45:18.375Z,101386.95
2018-11-22T23:47:48.943Z,101378.66
2018-11-22T23:50:37.529Z,101376.96
2018-11-22T23:53:07.808Z,101377.44
2018-11-22T23:55:37.961Z,101376.58
2018-11-22T23:58:07.933Z,101379.20
